Ontario, Indiana
Current Conditions -  °F | °C
As of 7:34 AM on Sunday 21 Dec 2014 (Local Time) from KIRS Reporting Station
Haze Haze  
Wind Chill: -5°   Ceiling: 6000
Heat Index: -2°   Visibility: 4mi
Dew Point: -3°   Wind: 6mph
Humidity: 93%   Direction: 150°SSE
Pressure: 30.26"   Gusts: NA
Location:  41.7293°N, 85.4292°W
Report Text: KIRS 211234Z AUTO 15005KT 4SM BR OVC060 M02/M03 A3026 RMK AO2
Loading
Personal Weather Stations






























Interactive Weather Map New forecast layout! Learn more

10-Day Weather Forecast

Advertisements
Track Severe Weather on mobile